Accueil
METAR-TAF:

METAR-TAF

Aéroports :

Aéroport Andorre

La Seu d'Urgell, Espagne

latitude: 42-20-29N, longitude: 001-24-17E, altitude: 802 m

Observation

Le bulletin a été fait il y a 31 minutes, à 15:30 UTC
Vent 2 kt de direction variable
Température 7°C
Humidité 70%
Pression 1017 hPa
Visibilité 10 km ou plus
pas de nuages en-dessous de 1500 mètres et pas de cumulonimbus.

METAR: LESU 271530Z VRB02KT CAVOK 07/02 Q1017

Heure: 17:01 (16:01 UTC)

Prévision

Le bulletin a été fait il y a 24 minutes, à 15:37 UTC
Prévision valable du 27 à 15 UTC au 28 à 15 UTC
Vent 3 kt de direction variable
Visibilité 10 km ou plus
Quelques nuages à une hauteur de 1400 ft
Probabilité 30% :
Temporairement
du 27 à 18 UTC au 28 à 06 UTC
Visibilité: 4000 m
Nuages fragmentés à une hauteur de 800 ft
brume

TAF: LESU 271537Z 2715/2815 VRB03KT 9999 FEW014 TX11/2814Z TN03/2807Z PROB30 TEMPO 2718/2806 4000 BR BKN008

Observations et prévisions météorologiques de plus de 4000 aéroports (messages METAR et TAF).

Les stations disponibles sont représentées par des disques jaunes et rouges sur la carte.

Passer la souris dessus pour voir le nom de la station.

Cliquer dessus pour voir les observations et prévisions météorologiques.

Pour changer de carte: cliquez sur les boutons verts avec une croix noire pour zoomer, sur le bouton vert avec un tiret pour effectuer un zoom arrière, ou sur les flèches vertes pour les cartes adjacentes.


METAR-TAF: